Ballinamallard, United Kingdom
Current Conditions -  °F | °C
As of 8:20 AM on Thursday 18 Dec 2014 (Local Time) from EGAE Reporting Station
Moderate Rain Moderate Rain  
Wind Chill: 54°   Ceiling: 1700
Heat Index: 54°   Visibility: 6mi
Dew Point: 52°   Wind: 23mph
Humidity: 94%   Direction: 230°SW
Pressure: 29.35"   Gusts: NA
Location:  54.4°N, 7.58°W
Report Text: EGAE 180820Z 23020KT 9000 RA FEW012 OVC017 12/11 Q0994
Loading
Personal Weather Stations






























Interactive Weather Map New forecast layout! Learn more

10-Day Weather Forecast

Advertisements
Track Severe Weather on mobile